createdAt,value
2022-08-05T00:02:27.045Z,101659.72
2022-08-05T00:04:56.054Z,101666.13
2022-08-05T00:07:58.894Z,101666.44
2022-08-05T00:10:09.913Z,101673.78
2022-08-05T00:12:55.914Z,101667.31
2022-08-05T00:15:55.350Z,101668.97
2022-08-05T00:18:09.326Z,101678.56
2022-08-05T00:20:48.870Z,101676.28
2022-08-05T00:23:15.400Z,101692.28
2022-08-05T00:25:46.057Z,101685.97
2022-08-05T00:28:13.337Z,101673.78
2022-08-05T00:30:43.976Z,101673.31
2022-08-05T00:34:41.974Z,101679.84
2022-08-05T00:36:16.153Z,101679.19
2022-08-05T00:38:44.192Z,101674.19
2022-08-05T00:41:11.689Z,101676.25
2022-08-05T00:43:41.750Z,101673.72
2022-08-05T00:46:16.035Z,101668.81
2022-08-05T00:48:51.132Z,101671.75
2022-08-05T00:51:50.994Z,101674.59
2022-08-05T00:54:05.850Z,101668.56
2022-08-05T00:56:32.285Z,101673.47
2022-08-05T00:58:59.214Z,101675.63
2022-08-05T01:01:42.984Z,101676.41
2022-08-05T01:04:13.824Z,101675.75
2022-08-05T01:06:40.942Z,101677.81
2022-08-05T01:09:10.122Z,101679.75
2022-08-05T01:11:39.310Z,101688.78
2022-08-05T01:14:09.237Z,101681.41
2022-08-05T01:16:52.452Z,101679.25
2022-08-05T01:19:21.647Z,101677.28
2022-08-05T01:22:15.330Z,101674.34
2022-08-05T01:25:04.658Z,101682.59
2022-08-05T01:27:54.994Z,101677.31
2022-08-05T01:30:34.461Z,101678.84
2022-08-05T01:33:06.176Z,101677.19
2022-08-05T01:35:51.318Z,101678.16
2022-08-05T01:38:24.851Z,101679.81
2022-08-05T01:40:56.950Z,101686.22
2022-08-05T01:43:24.913Z,101687.66
2022-08-05T01:45:56.248Z,101697.53
2022-08-05T01:48:24.964Z,101689.38
2022-08-05T01:50:53.137Z,101688.41
2022-08-05T01:53:55.164Z,101689.19
2022-08-05T01:56:11.057Z,101691.56
2022-08-05T01:58:45.097Z,101693.41
2022-08-05T02:01:14.553Z,101693.09
2022-08-05T02:03:46.452Z,101698.53
2022-08-05T02:06:37.931Z,101708.41
2022-08-05T02:08:59.817Z,101697.97
2022-08-05T02:11:36.973Z,101698.50
2022-08-05T02:14:12.512Z,101696.19
2022-08-05T02:16:45.803Z,101695.91
2022-08-05T02:19:27.762Z,101695.56
2022-08-05T02:22:01.541Z,101706.31
2022-08-05T02:24:34.136Z,101707.53
2022-08-05T02:27:09.937Z,101710.25
2022-08-05T02:29:59.022Z,101699.91
2022-08-05T02:32:30.844Z,101695.56
2022-08-05T02:35:09.596Z,101703.91
2022-08-05T02:37:47.648Z,101698.56
2022-08-05T02:40:16.973Z,101690.88
2022-08-05T02:42:53.043Z,101689.78
2022-08-05T02:45:24.078Z,101689.78
2022-08-05T02:48:06.943Z,101681.31
2022-08-05T02:50:44.037Z,101690.22
2022-08-05T02:53:12.052Z,101694.28
2022-08-05T02:55:55.110Z,101690.03
2022-08-05T02:58:28.918Z,101684.13
2022-08-05T03:00:58.865Z,101680.88
2022-08-05T03:03:28.259Z,101682.72
2022-08-05T03:06:54.597Z,101678.47
2022-08-05T03:08:52.161Z,101671.72
2022-08-05T03:11:55.509Z,101661.41
2022-08-05T03:14:13.253Z,101667.69
2022-08-05T03:16:40.601Z,101662.47
2022-08-05T03:19:16.870Z,101670.94
2022-08-05T03:21:49.358Z,101673.09
2022-08-05T03:24:26.817Z,101680.56
2022-08-05T03:26:56.330Z,101683.84
2022-08-05T03:29:24.002Z,101684.25
2022-08-05T03:31:56.462Z,101681.91
2022-08-05T03:34:25.065Z,101680.38
2022-08-05T03:36:53.733Z,101680.50
2022-08-05T03:39:27.189Z,101681.38
2022-08-05T03:41:56.324Z,101678.75
2022-08-05T03:44:23.639Z,101676.34
2022-08-05T03:46:50.418Z,101683.91
2022-08-05T03:49:16.901Z,101679.75
2022-08-05T03:52:38.248Z,101682.56
2022-08-05T03:56:05.199Z,101691.88
2022-08-05T03:57:58.668Z,101688.00
2022-08-05T04:00:31.227Z,101706.22
2022-08-05T04:03:04.514Z,101707.81
2022-08-05T04:05:34.707Z,101702.38
2022-08-05T04:08:03.735Z,101705.66
2022-08-05T04:10:37.897Z,101696.53
2022-08-05T04:13:06.256Z,101701.97
2022-08-05T04:15:36.211Z,101703.03
2022-08-05T04:18:09.718Z,101696.06
2022-08-05T04:20:38.466Z,101695.28
2022-08-05T04:23:12.549Z,101710.72
2022-08-05T04:26:00.674Z,101709.94
2022-08-05T04:28:30.526Z,101711.66
2022-08-05T04:30:57.603Z,101709.16
2022-08-05T04:33:54.561Z,101717.50
2022-08-05T04:36:38.516Z,101715.25
2022-08-05T04:38:57.641Z,101712.66
2022-08-05T04:41:36.837Z,101720.03
2022-08-05T04:44:09.550Z,101718.47
2022-08-05T04:46:37.170Z,101716.72
2022-08-05T04:49:05.328Z,101707.63
2022-08-05T04:51:38.907Z,101714.00
2022-08-05T04:54:05.486Z,101708.56
2022-08-05T04:56:36.975Z,101705.88
2022-08-05T04:59:21.466Z,101708.75
2022-08-05T05:02:35.756Z,101706.00
2022-08-05T05:04:47.683Z,101705.88
2022-08-05T05:07:17.024Z,101703.19
2022-08-05T05:09:44.441Z,101706.69
2022-08-05T05:12:11.620Z,101713.59
2022-08-05T05:14:38.189Z,101713.41
2022-08-05T05:17:17.744Z,101714.66
2022-08-05T05:19:50.102Z,101715.53
2022-08-05T05:22:23.923Z,101720.59
2022-08-05T05:24:58.477Z,101718.19
2022-08-05T05:27:44.676Z,101723.84
2022-08-05T05:30:15.508Z,101720.34
2022-08-05T05:32:55.856Z,101719.06
2022-08-05T05:35:23.002Z,101713.50
2022-08-05T05:38:00.322Z,101709.56
2022-08-05T05:40:29.292Z,101706.19
2022-08-05T05:42:57.362Z,101709.31
2022-08-05T05:45:24.614Z,101713.56
2022-08-05T05:48:05.454Z,101707.78
2022-08-05T05:50:32.700Z,101715.22
2022-08-05T05:53:00.518Z,101716.94
2022-08-05T05:55:51.689Z,101707.63
2022-08-05T05:58:13.462Z,101701.28
2022-08-05T06:00:40.711Z,101708.44
2022-08-05T06:03:39.993Z,101708.81
2022-08-05T06:05:58.701Z,101703.19
2022-08-05T06:08:31.640Z,101714.00
2022-08-05T06:10:59.849Z,101719.09
2022-08-05T06:13:26.917Z,101715.13
2022-08-05T06:16:30.901Z,101720.31
2022-08-05T06:18:45.059Z,101725.28
2022-08-05T06:21:18.628Z,101720.16
2022-08-05T06:23:45.398Z,101720.81
2022-08-05T06:26:20.977Z,101730.66
2022-08-05T06:28:48.158Z,101732.50
2022-08-05T06:31:18.125Z,101741.22
2022-08-05T06:34:07.700Z,101739.66
2022-08-05T06:36:45.999Z,101726.94
2022-08-05T06:39:21.802Z,101739.81
2022-08-05T06:41:49.692Z,101739.09
2022-08-05T06:44:18.797Z,101742.84
2022-08-05T06:46:51.074Z,101742.84
2022-08-05T06:49:17.812Z,101747.03
2022-08-05T06:51:45.673Z,101752.50
2022-08-05T06:54:19.115Z,101760.03
2022-08-05T06:56:55.143Z,101748.25
2022-08-05T06:59:38.784Z,101752.13
2022-08-05T07:02:08.788Z,101759.22
2022-08-05T07:04:35.199Z,101761.56
2022-08-05T07:07:03.211Z,101755.16
2022-08-05T07:09:37.441Z,101760.41
2022-08-05T07:12:07.701Z,101760.34
2022-08-05T07:14:53.975Z,101768.88
2022-08-05T07:18:00.227Z,101769.63
2022-08-05T07:22:54.379Z,101783.38
2022-08-05T07:25:53.878Z,101787.84
2022-08-05T07:28:11.518Z,101791.63
2022-08-05T07:30:39.916Z,101805.66
2022-08-05T07:33:10.639Z,101801.53
2022-08-05T07:36:04.969Z,101800.25
2022-08-05T07:38:34.292Z,101798.25
2022-08-05T07:42:08.399Z,101802.63
2022-08-05T07:43:56.242Z,101815.25
2022-08-05T07:46:25.319Z,101796.97
2022-08-05T07:49:01.834Z,101803.91
2022-08-05T07:51:40.716Z,101794.03
2022-08-05T07:54:14.931Z,101795.78
2022-08-05T07:57:01.197Z,101805.09
2022-08-05T07:59:39.117Z,101808.66
2022-08-05T08:02:15.624Z,101810.72
2022-08-05T08:04:48.602Z,101826.63
2022-08-05T08:07:15.810Z,101816.41
2022-08-05T08:09:43.005Z,101820.53
2022-08-05T08:12:20.986Z,101821.56
2022-08-05T08:14:56.578Z,101821.56
2022-08-05T08:17:23.572Z,101827.69
2022-08-05T08:20:44.086Z,101817.16
2022-08-05T08:22:37.023Z,101819.66
2022-08-05T08:25:16.062Z,101827.38
2022-08-05T08:27:45.009Z,101838.81
2022-08-05T08:30:27.602Z,101842.50
2022-08-05T08:33:02.592Z,101838.78
2022-08-05T08:35:35.262Z,101839.41
2022-08-05T08:38:08.548Z,101848.16
2022-08-05T08:40:39.466Z,101854.34
2022-08-05T08:45:16.839Z,101857.09
2022-08-05T08:45:55.008Z,101856.34
2022-08-05T08:49:03.316Z,101851.97
2022-08-05T08:52:02.313Z,101860.31
2022-08-05T08:53:56.097Z,101865.50
2022-08-05T08:56:23.604Z,101866.75
2022-08-05T08:58:53.903Z,101867.53
2022-08-05T09:01:20.422Z,101875.59
2022-08-05T09:03:54.352Z,101871.41
2022-08-05T09:06:28.255Z,101872.56
2022-08-05T09:08:58.155Z,101873.97
2022-08-05T09:11:51.135Z,101885.16
2022-08-05T09:14:56.899Z,101875.16
2022-08-05T09:17:00.145Z,101883.34
2022-08-05T09:19:27.682Z,101900.09
2022-08-05T09:22:21.890Z,101898.25
2022-08-05T09:24:42.542Z,101899.19
2022-08-05T09:27:09.632Z,101897.19
2022-08-05T09:29:47.958Z,101903.44
2022-08-05T09:32:40.886Z,101902.69
2022-08-05T09:35:09.835Z,101905.81
2022-08-05T09:38:12.480Z,101909.53
2022-08-05T09:40:37.893Z,101910.13
2022-08-05T09:43:07.707Z,101911.97
2022-08-05T09:46:07.605Z,101912.03
2022-08-05T09:48:34.228Z,101912.91
2022-08-05T09:51:03.418Z,101915.34
2022-08-05T09:53:54.669Z,101917.53
2022-08-05T09:56:27.205Z,101916.69
2022-08-05T09:59:07.313Z,101921.03
2022-08-05T10:01:36.811Z,101926.69
2022-08-05T10:04:16.142Z,101924.28
2022-08-05T10:06:59.056Z,101929.25
2022-08-05T10:09:29.361Z,101928.06
2022-08-05T10:12:31.103Z,101932.94
2022-08-05T10:15:13.600Z,101938.91
2022-08-05T10:17:47.177Z,101941.16
2022-08-05T10:20:23.849Z,101942.53
2022-08-05T10:22:51.924Z,101941.22
2022-08-05T10:25:19.481Z,101942.56
2022-08-05T10:28:09.736Z,101945.78
2022-08-05T10:32:49.465Z,101944.78
2022-08-05T10:33:24.132Z,101948.84
2022-08-05T10:35:59.809Z,101950.88
2022-08-05T10:38:28.521Z,101957.09
2022-08-05T10:41:04.607Z,101981.56
2022-08-05T10:43:47.445Z,101961.66
2022-08-05T10:46:18.984Z,101960.03
2022-08-05T10:49:01.473Z,101973.06
2022-08-05T10:51:53.050Z,101975.38
2022-08-05T10:55:01.776Z,101974.06
2022-08-05T10:57:30.909Z,101977.75
2022-08-05T11:00:17.926Z,101984.34
2022-08-05T11:03:25.002Z,101981.41
2022-08-05T11:06:15.888Z,101992.28
2022-08-05T11:09:16.916Z,101999.97
2022-08-05T11:11:53.318Z,102006.50
2022-08-05T11:14:57.778Z,102020.59
2022-08-05T11:17:57.639Z,102015.84
2022-08-05T11:20:43.669Z,102025.53
2022-08-05T11:24:05.602Z,102018.56
2022-08-05T11:26:32.703Z,102028.19
2022-08-05T11:29:13.466Z,102025.06
2022-08-05T11:31:54.242Z,102033.94
2022-08-05T11:34:37.337Z,102031.38
2022-08-05T11:37:55.141Z,102035.22
2022-08-05T11:40:00.479Z,102044.22
2022-08-05T11:42:32.796Z,102034.66
2022-08-05T11:45:05.978Z,102044.69
2022-08-05T11:47:50.635Z,102038.59
2022-08-05T11:50:21.583Z,102051.88
2022-08-05T11:52:48.866Z,102040.00
2022-08-05T11:55:16.751Z,102044.72
2022-08-05T11:58:09.649Z,102039.94
2022-08-05T12:00:38.124Z,102041.09
2022-08-05T12:03:29.309Z,102053.19
2022-08-05T12:06:03.114Z,102048.63
2022-08-05T12:08:33.027Z,102063.50
2022-08-05T12:11:05.494Z,102061.84
2022-08-05T12:13:48.973Z,102059.59
2022-08-05T12:16:18.910Z,102073.31
2022-08-05T12:18:52.280Z,102076.34
2022-08-05T12:21:26.588Z,102070.59
2022-08-05T12:24:04.381Z,102073.31
2022-08-05T12:26:44.081Z,102084.16
2022-08-05T12:29:23.544Z,102085.31
2022-08-05T12:31:55.503Z,102087.09
2022-08-05T12:34:28.682Z,102096.03
2022-08-05T12:37:10.656Z,102103.56
2022-08-05T12:39:41.033Z,102097.13
2022-08-05T12:42:14.779Z,102108.41
2022-08-05T12:44:43.111Z,102093.56
2022-08-05T12:47:22.454Z,102109.13
2022-08-05T12:50:02.300Z,102111.94
2022-08-05T12:52:38.641Z,102115.81
2022-08-05T12:55:23.833Z,102115.78
2022-08-05T12:58:50.262Z,102121.84
2022-08-05T13:02:00.939Z,102116.75
2022-08-05T13:03:34.330Z,102116.28
2022-08-05T13:06:10.416Z,102121.16
2022-08-05T13:08:38.736Z,102120.25
2022-08-05T13:11:06.446Z,102121.81
2022-08-05T13:14:05.134Z,102114.03
2022-08-05T13:16:25.280Z,102114.75
2022-08-05T13:18:59.674Z,102128.22
2022-08-05T13:21:28.363Z,102124.50
2022-08-05T13:24:05.245Z,102130.81
2022-08-05T13:26:31.625Z,102134.47
2022-08-05T13:28:58.992Z,102143.06
2022-08-05T13:31:33.806Z,102134.06
2022-08-05T13:34:25.095Z,102144.47
2022-08-05T13:36:53.249Z,102137.53
2022-08-05T13:40:12.878Z,102147.75
2022-08-05T13:42:06.621Z,102149.53
2022-08-05T13:44:34.634Z,102154.56
2022-08-05T13:47:08.654Z,102157.50
2022-08-05T13:49:35.894Z,102159.16
2022-08-05T13:52:15.784Z,102149.56
2022-08-05T13:54:42.381Z,102151.88
2022-08-05T13:57:20.418Z,102162.41
2022-08-05T13:59:57.519Z,102170.41
2022-08-05T14:02:26.590Z,102167.63
2022-08-05T14:05:11.510Z,102167.19
2022-08-05T14:08:02.706Z,102165.19
2022-08-05T14:10:28.678Z,102180.56
2022-08-05T14:12:57.015Z,102179.66
2022-08-05T14:16:07.450Z,102183.84
2022-08-05T14:18:15.188Z,102188.22
2022-08-05T14:20:47.069Z,102190.44
2022-08-05T14:23:25.068Z,102190.06
2022-08-05T14:25:58.436Z,102193.19
2022-08-05T14:28:28.974Z,102192.63
2022-08-05T14:30:56.747Z,102192.31
2022-08-05T14:33:24.115Z,102196.47
2022-08-05T14:35:52.015Z,102192.66
2022-08-05T14:38:32.117Z,102203.09
2022-08-05T14:41:05.839Z,102199.97
2022-08-05T14:44:02.271Z,102203.09
2022-08-05T14:46:21.791Z,102203.78
2022-08-05T14:48:49.142Z,102204.06
2022-08-05T14:51:16.710Z,102200.69
2022-08-05T14:53:44.925Z,102207.19
2022-08-05T14:56:12.141Z,102217.97
2022-08-05T14:58:47.757Z,102214.56
2022-08-05T15:01:47.281Z,102212.31
2022-08-05T15:04:11.675Z,102219.91
2022-08-05T15:06:39.117Z,102223.03
2022-08-05T15:09:07.056Z,102231.22
2022-08-05T15:11:53.148Z,102232.13
2022-08-05T15:14:34.642Z,102235.06
2022-08-05T15:17:10.005Z,102243.00
2022-08-05T15:19:55.151Z,102232.44
2022-08-05T15:22:21.761Z,102237.97
2022-08-05T15:24:54.143Z,102232.72
2022-08-05T15:27:20.637Z,102242.06
2022-08-05T15:29:47.036Z,102236.34
2022-08-05T15:32:21.896Z,102231.78
2022-08-05T15:34:54.001Z,102244.94
2022-08-05T15:38:32.353Z,102242.53
2022-08-05T15:40:59.594Z,102245.19
2022-08-05T15:42:59.768Z,102245.31
2022-08-05T15:45:38.362Z,102238.59
2022-08-05T15:48:05.608Z,102249.16
2022-08-05T15:50:33.315Z,102246.94
2022-08-05T15:53:04.101Z,102246.75
2022-08-05T15:56:02.839Z,102237.03
2022-08-05T15:58:18.522Z,102251.44
2022-08-05T16:01:03.563Z,102248.13
2022-08-05T16:03:32.845Z,102241.41
2022-08-05T16:06:01.030Z,102250.03
2022-08-05T16:08:30.643Z,102251.63
2022-08-05T16:10:57.729Z,102272.06
2022-08-05T16:13:24.182Z,102251.53
2022-08-05T16:16:01.056Z,102256.28
2022-08-05T16:18:28.953Z,102269.97
2022-08-05T16:20:55.691Z,102260.63
2022-08-05T16:23:22.147Z,102269.13
2022-08-05T16:25:49.777Z,102273.41
2022-08-05T16:28:22.260Z,102268.91
2022-08-05T16:30:52.070Z,102283.84
2022-08-05T16:33:19.401Z,102280.88
2022-08-05T16:35:49.893Z,102282.44
2022-08-05T16:38:25.205Z,102275.38
2022-08-05T16:41:00.850Z,102273.81
2022-08-05T16:43:36.738Z,102293.81
2022-08-05T16:46:12.809Z,102281.66
2022-08-05T16:48:55.554Z,102285.47
2022-08-05T16:51:22.182Z,102288.25
2022-08-05T16:54:04.738Z,102281.69
2022-08-05T16:56:36.370Z,102286.97
2022-08-05T16:59:08.099Z,102292.28
2022-08-05T17:01:53.008Z,102286.38
2022-08-05T17:04:21.442Z,102286.19
2022-08-05T17:06:53.338Z,102284.53
2022-08-05T17:09:20.220Z,102293.25
2022-08-05T17:11:49.002Z,102293.50
2022-08-05T17:14:22.536Z,102295.16
2022-08-05T17:17:04.959Z,102292.66
2022-08-05T17:19:31.443Z,102298.19
2022-08-05T17:21:58.463Z,102299.88
2022-08-05T17:24:35.107Z,102298.09
2022-08-05T17:27:09.057Z,102303.88
2022-08-05T17:29:41.363Z,102308.72
2022-08-05T17:32:16.744Z,102304.75
2022-08-05T17:34:53.110Z,102304.78
2022-08-05T17:37:36.123Z,102302.88
2022-08-05T17:40:10.143Z,102302.69
2022-08-05T17:42:37.821Z,102302.53
2022-08-05T17:45:17.981Z,102302.91
2022-08-05T17:47:53.607Z,102305.47
2022-08-05T17:50:28.826Z,102306.25
2022-08-05T17:53:00.135Z,102307.59
2022-08-05T17:55:37.976Z,102303.22
2022-08-05T17:58:11.139Z,102306.69
2022-08-05T18:00:45.116Z,102320.53
2022-08-05T18:06:11.205Z,102331.66
2022-08-05T18:08:44.174Z,102321.53
2022-08-05T18:11:23.184Z,102325.16
2022-08-05T18:13:51.811Z,102316.97
2022-08-05T18:16:20.375Z,102323.56
2022-08-05T18:18:47.856Z,102335.75
2022-08-05T18:21:20.112Z,102338.81
2022-08-05T18:23:49.152Z,102339.41
2022-08-05T18:26:20.613Z,102349.63
2022-08-05T18:28:49.218Z,102348.91
2022-08-05T18:31:19.485Z,102357.97
2022-08-05T18:33:51.506Z,102362.69
2022-08-05T18:36:19.257Z,102364.75
2022-08-05T18:38:46.238Z,102363.44
2022-08-05T18:41:56.461Z,102370.09
2022-08-05T18:44:05.820Z,102372.06
2022-08-05T18:46:33.219Z,102361.81
2022-08-05T18:49:20.426Z,102374.88
2022-08-05T18:52:08.847Z,102367.78
2022-08-05T18:54:41.185Z,102369.91
2022-08-05T18:57:15.205Z,102375.78
2022-08-05T19:00:01.655Z,102371.56
2022-08-05T19:02:30.108Z,102376.84
2022-08-05T19:05:02.751Z,102382.63
2022-08-05T19:07:47.825Z,102384.28
2022-08-05T19:10:15.560Z,102380.28
2022-08-05T19:12:43.193Z,102380.78
2022-08-05T19:15:25.029Z,102387.69
2022-08-05T19:18:10.406Z,102390.91
2022-08-05T19:20:41.474Z,102391.63
2022-08-05T19:24:03.905Z,102391.22
2022-08-05T19:26:02.102Z,102395.13
2022-08-05T19:28:30.065Z,102401.91
2022-08-05T19:30:56.706Z,102401.47
2022-08-05T19:33:35.195Z,102402.47
2022-08-05T19:36:02.493Z,102407.13
2022-08-05T19:38:28.962Z,102405.38
2022-08-05T19:40:55.367Z,102411.09
2022-08-05T19:44:04.545Z,102407.59
2022-08-05T19:46:16.658Z,102419.72
2022-08-05T19:48:55.302Z,102425.16
2022-08-05T19:52:05.889Z,102428.56
2022-08-05T19:54:21.794Z,102439.63
2022-08-05T19:56:54.032Z,102435.69
2022-08-05T19:59:51.292Z,102438.28
2022-08-05T20:02:07.193Z,102440.72
2022-08-05T20:04:33.605Z,102442.09
2022-08-05T20:07:00.041Z,102450.88
2022-08-05T20:09:28.549Z,102450.19
2022-08-05T20:12:17.412Z,102451.72
2022-08-05T20:14:45.471Z,102460.56
2022-08-05T20:17:16.283Z,102459.19
2022-08-05T20:19:42.954Z,102464.63
2022-08-05T20:22:09.740Z,102463.94
2022-08-05T20:24:39.101Z,102472.91
2022-08-05T20:27:10.990Z,102476.72
2022-08-05T20:29:38.205Z,102476.09
2022-08-05T20:32:06.510Z,102481.19
2022-08-05T20:34:32.877Z,102484.94
2022-08-05T20:37:00.712Z,102486.53
2022-08-05T20:39:35.468Z,102477.50
2022-08-05T20:42:02.227Z,102480.44
2022-08-05T20:44:30.256Z,102479.22
2022-08-05T20:47:03.257Z,102488.38
2022-08-05T20:49:30.386Z,102488.72
2022-08-05T20:52:04.728Z,102494.16
2022-08-05T20:54:42.873Z,102495.38
2022-08-05T20:57:41.985Z,102492.03
2022-08-05T21:00:21.155Z,102491.84
2022-08-05T21:02:57.615Z,102493.00
2022-08-05T21:05:24.484Z,102494.56
2022-08-05T21:07:52.109Z,102493.00
2022-08-05T21:10:19.007Z,102491.28
2022-08-05T21:12:58.363Z,102501.50
2022-08-05T21:15:33.883Z,102511.66
2022-08-05T21:18:00.716Z,102510.75
2022-08-05T21:20:32.651Z,102500.59
2022-08-05T21:23:00.043Z,102505.25
2022-08-05T21:25:33.857Z,102515.16
2022-08-05T21:28:01.729Z,102514.59
2022-08-05T21:30:28.184Z,102512.19
2022-08-05T21:32:55.092Z,102506.75
2022-08-05T21:35:29.568Z,102506.41
2022-08-05T21:37:57.265Z,102519.84
2022-08-05T21:40:24.622Z,102512.56
2022-08-05T21:42:53.592Z,102523.06
2022-08-05T21:45:24.472Z,102522.69
2022-08-05T21:47:56.672Z,102521.47
2022-08-05T21:50:24.445Z,102521.88
2022-08-05T21:52:50.908Z,102527.59
2022-08-05T21:55:21.612Z,102520.38
2022-08-05T21:58:05.823Z,102518.13
2022-08-05T22:00:32.309Z,102521.03
2022-08-05T22:02:59.674Z,102517.84
2022-08-05T22:05:27.290Z,102520.19
2022-08-05T22:07:58.714Z,102519.47
2022-08-05T22:10:29.191Z,102529.41
2022-08-05T22:12:58.992Z,102528.13
2022-08-05T22:16:01.097Z,102529.53
2022-08-05T22:18:21.592Z,102529.72
2022-08-05T22:20:52.508Z,102523.97
2022-08-05T22:24:01.946Z,102532.13
2022-08-05T22:26:42.818Z,102531.63
2022-08-05T22:29:17.418Z,102527.94
2022-08-05T22:31:45.314Z,102530.00
2022-08-05T22:34:20.146Z,102530.81
2022-08-05T22:36:54.982Z,102532.44
2022-08-05T22:39:22.505Z,102546.50
2022-08-05T22:42:10.076Z,102542.38
2022-08-05T22:44:35.333Z,102551.13
2022-08-05T22:47:04.972Z,102547.91
2022-08-05T22:50:18.205Z,102552.63
2022-08-05T22:52:30.210Z,102550.53
2022-08-05T22:54:59.497Z,102554.41
2022-08-05T22:57:26.550Z,102555.16
2022-08-05T22:59:54.224Z,102556.31
2022-08-05T23:02:29.421Z,102553.03
2022-08-05T23:04:57.948Z,102551.69
2022-08-05T23:07:28.185Z,102554.56
2022-08-05T23:10:01.751Z,102561.81
2022-08-05T23:12:32.644Z,102569.50
2022-08-05T23:15:01.207Z,102565.59
2022-08-05T23:17:32.668Z,102568.97
2022-08-05T23:20:02.378Z,102574.47
2022-08-05T23:22:29.477Z,102570.72
2022-08-05T23:24:57.318Z,102581.44
2022-08-05T23:27:24.204Z,102576.19
2022-08-05T23:29:57.943Z,102586.06
2022-08-05T23:32:24.744Z,102587.19
2022-08-05T23:34:53.815Z,102584.19
2022-08-05T23:37:20.289Z,102579.63
2022-08-05T23:39:54.243Z,102580.28
2022-08-05T23:42:23.359Z,102585.41
2022-08-05T23:44:55.511Z,102588.25
2022-08-05T23:47:21.900Z,102586.66
2022-08-05T23:49:52.153Z,102591.53
2022-08-05T23:52:32.534Z,102592.63
2022-08-05T23:55:07.112Z,102586.41
2022-08-05T23:57:36.852Z,102588.97
